sensor_id;sensor_type;location;lat;lon;timestamp;P1;durP1;ratioP1;P2;durP2;ratioP2
15287;SDS011;7745;48.708;9.026;2022-10-16T00:02:11;3.73;;;2.03;;
15287;SDS011;7745;48.708;9.026;2022-10-16T00:04:37;5.47;;;2.27;;
15287;SDS011;7745;48.708;9.026;2022-10-16T00:07:04;5.47;;;2.50;;
15287;SDS011;7745;48.708;9.026;2022-10-16T00:09:31;6.13;;;2.47;;
15287;SDS011;7745;48.708;9.026;2022-10-16T00:11:59;7.27;;;3.30;;
15287;SDS011;7745;48.708;9.026;2022-10-16T00:14:26;5.77;;;2.00;;
15287;SDS011;7745;48.708;9.026;2022-10-16T00:16:53;4.67;;;1.90;;
15287;SDS011;7745;48.708;9.026;2022-10-16T00:19:19;2.77;;;1.70;;
15287;SDS011;7745;48.708;9.026;2022-10-16T00:21:46;3.53;;;2.07;;
15287;SDS011;7745;48.708;9.026;2022-10-16T00:24:13;6.50;;;2.20;;
15287;SDS011;7745;48.708;9.026;2022-10-16T00:26:39;6.20;;;1.80;;
15287;SDS011;7745;48.708;9.026;2022-10-16T00:29:08;5.40;;;1.87;;
15287;SDS011;7745;48.708;9.026;2022-10-16T00:31:35;9.07;;;2.33;;
15287;SDS011;7745;48.708;9.026;2022-10-16T00:34:02;6.97;;;1.60;;
15287;SDS011;7745;48.708;9.026;2022-10-16T00:36:29;4.43;;;2.10;;
15287;SDS011;7745;48.708;9.026;2022-10-16T00:38:57;5.83;;;1.87;;
15287;SDS011;7745;48.708;9.026;2022-10-16T00:41:25;5.43;;;2.00;;
15287;SDS011;7745;48.708;9.026;2022-10-16T00:43:52;5.77;;;1.87;;
15287;SDS011;7745;48.708;9.026;2022-10-16T00:46:22;4.33;;;1.77;;
15287;SDS011;7745;48.708;9.026;2022-10-16T00:48:52;2.70;;;1.90;;
15287;SDS011;7745;48.708;9.026;2022-10-16T00:51:23;3.60;;;1.70;;
15287;SDS011;7745;48.708;9.026;2022-10-16T00:53:54;1.60;;;1.23;;
15287;SDS011;7745;48.708;9.026;2022-10-16T00:56:22;3.17;;;1.80;;
15287;SDS011;7745;48.708;9.026;2022-10-16T00:58:49;1.83;;;1.70;;
15287;SDS011;7745;48.708;9.026;2022-10-16T01:01:16;2.90;;;1.57;;
15287;SDS011;7745;48.708;9.026;2022-10-16T01:03:44;4.40;;;1.90;;
15287;SDS011;7745;48.708;9.026;2022-10-16T01:06:18;2.23;;;1.70;;
15287;SDS011;7745;48.708;9.026;2022-10-16T01:08:53;3.90;;;1.27;;
15287;SDS011;7745;48.708;9.026;2022-10-16T01:11:29;5.17;;;1.57;;
15287;SDS011;7745;48.708;9.026;2022-10-16T01:14:00;3.23;;;1.53;;
15287;SDS011;7745;48.708;9.026;2022-10-16T01:16:32;3.20;;;1.40;;
15287;SDS011;7745;48.708;9.026;2022-10-16T01:19:08;4.17;;;1.70;;
15287;SDS011;7745;48.708;9.026;2022-10-16T01:21:40;5.43;;;1.73;;
15287;SDS011;7745;48.708;9.026;2022-10-16T01:24:12;7.27;;;1.70;;
15287;SDS011;7745;48.708;9.026;2022-10-16T01:29:34;6.63;;;1.60;;
15287;SDS011;7745;48.708;9.026;2022-10-16T01:32:07;4.70;;;1.70;;
15287;SDS011;7745;48.708;9.026;2022-10-16T01:34:38;4.30;;;1.90;;
15287;SDS011;7745;48.708;9.026;2022-10-16T01:37:14;4.93;;;1.80;;
15287;SDS011;7745;48.708;9.026;2022-10-16T01:39:47;4.50;;;1.87;;
15287;SDS011;7745;48.708;9.026;2022-10-16T01:42:18;2.67;;;1.67;;
15287;SDS011;7745;48.708;9.026;2022-10-16T01:44:48;4.27;;;1.50;;
15287;SDS011;7745;48.708;9.026;2022-10-16T01:47:17;3.73;;;1.63;;
15287;SDS011;7745;48.708;9.026;2022-10-16T01:49:47;2.50;;;1.47;;
15287;SDS011;7745;48.708;9.026;2022-10-16T01:52:15;2.83;;;1.50;;
15287;SDS011;7745;48.708;9.026;2022-10-16T01:54:47;2.70;;;1.30;;
15287;SDS011;7745;48.708;9.026;2022-10-16T01:57:18;6.27;;;1.73;;
15287;SDS011;7745;48.708;9.026;2022-10-16T01:59:48;5.73;;;1.77;;
15287;SDS011;7745;48.708;9.026;2022-10-16T02:02:17;5.83;;;1.57;;
15287;SDS011;7745;48.708;9.026;2022-10-16T02:04:47;6.50;;;1.90;;
15287;SDS011;7745;48.708;9.026;2022-10-16T02:07:17;3.43;;;1.60;;
15287;SDS011;7745;48.708;9.026;2022-10-16T02:09:44;2.97;;;1.60;;
15287;SDS011;7745;48.708;9.026;2022-10-16T02:12:12;2.20;;;1.60;;
15287;SDS011;7745;48.708;9.026;2022-10-16T02:14:47;7.17;;;1.57;;
15287;SDS011;7745;48.708;9.026;2022-10-16T02:17:14;2.40;;;1.43;;
15287;SDS011;7745;48.708;9.026;2022-10-16T02:19:42;4.33;;;1.60;;
15287;SDS011;7745;48.708;9.026;2022-10-16T02:22:14;4.13;;;1.50;;
15287;SDS011;7745;48.708;9.026;2022-10-16T02:24:46;2.70;;;1.30;;
15287;SDS011;7745;48.708;9.026;2022-10-16T02:27:19;3.27;;;1.60;;
15287;SDS011;7745;48.708;9.026;2022-10-16T02:29:53;3.97;;;1.40;;
15287;SDS011;7745;48.708;9.026;2022-10-16T02:32:27;4.43;;;1.53;;
15287;SDS011;7745;48.708;9.026;2022-10-16T02:34:57;5.43;;;1.60;;
15287;SDS011;7745;48.708;9.026;2022-10-16T02:37:25;2.10;;;1.40;;
15287;SDS011;7745;48.708;9.026;2022-10-16T02:39:53;3.97;;;1.67;;
15287;SDS011;7745;48.708;9.026;2022-10-16T02:42:27;4.77;;;1.67;;
15287;SDS011;7745;48.708;9.026;2022-10-16T02:44:55;3.90;;;1.47;;
15287;SDS011;7745;48.708;9.026;2022-10-16T02:47:22;5.63;;;1.40;;
15287;SDS011;7745;48.708;9.026;2022-10-16T02:49:49;4.63;;;1.37;;
15287;SDS011;7745;48.708;9.026;2022-10-16T02:52:15;3.43;;;1.67;;
15287;SDS011;7745;48.708;9.026;2022-10-16T02:54:42;2.77;;;1.30;;
15287;SDS011;7745;48.708;9.026;2022-10-16T02:57:09;4.97;;;1.57;;
15287;SDS011;7745;48.708;9.026;2022-10-16T02:59:36;4.57;;;1.40;;
15287;SDS011;7745;48.708;9.026;2022-10-16T03:02:05;4.03;;;1.27;;
15287;SDS011;7745;48.708;9.026;2022-10-16T03:04:31;6.60;;;1.70;;
15287;SDS011;7745;48.708;9.026;2022-10-16T03:06:58;3.40;;;1.20;;
15287;SDS011;7745;48.708;9.026;2022-10-16T03:09:25;4.30;;;1.50;;
15287;SDS011;7745;48.708;9.026;2022-10-16T03:11:51;7.00;;;1.50;;
15287;SDS011;7745;48.708;9.026;2022-10-16T03:14:18;5.50;;;1.60;;
15287;SDS011;7745;48.708;9.026;2022-10-16T03:16:45;3.50;;;1.40;;
15287;SDS011;7745;48.708;9.026;2022-10-16T03:19:13;4.87;;;1.20;;
15287;SDS011;7745;48.708;9.026;2022-10-16T03:21:42;3.27;;;1.40;;
15287;SDS011;7745;48.708;9.026;2022-10-16T03:24:08;5.90;;;1.30;;
15287;SDS011;7745;48.708;9.026;2022-10-16T03:26:35;2.50;;;1.23;;
15287;SDS011;7745;48.708;9.026;2022-10-16T03:29:02;2.47;;;1.40;;
15287;SDS011;7745;48.708;9.026;2022-10-16T03:31:30;3.13;;;1.33;;
15287;SDS011;7745;48.708;9.026;2022-10-16T03:33:57;2.17;;;1.40;;
15287;SDS011;7745;48.708;9.026;2022-10-16T03:36:25;5.83;;;1.67;;
15287;SDS011;7745;48.708;9.026;2022-10-16T03:38:52;3.67;;;1.70;;
15287;SDS011;7745;48.708;9.026;2022-10-16T03:41:18;3.33;;;1.33;;
15287;SDS011;7745;48.708;9.026;2022-10-16T03:43:45;6.27;;;1.70;;
15287;SDS011;7745;48.708;9.026;2022-10-16T03:46:12;4.60;;;1.30;;
15287;SDS011;7745;48.708;9.026;2022-10-16T03:48:39;3.83;;;1.23;;
15287;SDS011;7745;48.708;9.026;2022-10-16T03:51:05;2.73;;;1.43;;
15287;SDS011;7745;48.708;9.026;2022-10-16T03:53:34;6.57;;;1.57;;
15287;SDS011;7745;48.708;9.026;2022-10-16T03:56:00;6.07;;;1.40;;
15287;SDS011;7745;48.708;9.026;2022-10-16T03:58:27;4.30;;;1.43;;
15287;SDS011;7745;48.708;9.026;2022-10-16T04:00:54;10.53;;;2.00;;
15287;SDS011;7745;48.708;9.026;2022-10-16T04:03:21;3.23;;;1.60;;
15287;SDS011;7745;48.708;9.026;2022-10-16T04:05:48;5.20;;;1.50;;
15287;SDS011;7745;48.708;9.026;2022-10-16T04:08:15;3.07;;;1.60;;
15287;SDS011;7745;48.708;9.026;2022-10-16T04:10:43;6.40;;;2.30;;
15287;SDS011;7745;48.708;9.026;2022-10-16T04:13:10;5.93;;;1.60;;
15287;SDS011;7745;48.708;9.026;2022-10-16T04:15:37;2.50;;;1.60;;
15287;SDS011;7745;48.708;9.026;2022-10-16T04:18:04;5.13;;;1.80;;
15287;SDS011;7745;48.708;9.026;2022-10-16T04:20:31;5.60;;;1.70;;
15287;SDS011;7745;48.708;9.026;2022-10-16T04:22:58;5.50;;;1.50;;
15287;SDS011;7745;48.708;9.026;2022-10-16T04:25:25;7.87;;;2.10;;
15287;SDS011;7745;48.708;9.026;2022-10-16T04:27:53;5.50;;;1.70;;
15287;SDS011;7745;48.708;9.026;2022-10-16T04:30:21;5.50;;;2.10;;
15287;SDS011;7745;48.708;9.026;2022-10-16T04:32:48;2.80;;;1.70;;
15287;SDS011;7745;48.708;9.026;2022-10-16T04:35:15;5.20;;;2.10;;
15287;SDS011;7745;48.708;9.026;2022-10-16T04:37:42;2.40;;;1.63;;
15287;SDS011;7745;48.708;9.026;2022-10-16T04:40:09;5.20;;;1.60;;
15287;SDS011;7745;48.708;9.026;2022-10-16T04:42:36;4.47;;;1.77;;
15287;SDS011;7745;48.708;9.026;2022-10-16T04:45:05;6.10;;;1.43;;
15287;SDS011;7745;48.708;9.026;2022-10-16T04:47:33;9.93;;;1.77;;
15287;SDS011;7745;48.708;9.026;2022-10-16T04:50:00;5.13;;;2.00;;
15287;SDS011;7745;48.708;9.026;2022-10-16T04:52:27;5.67;;;2.30;;
15287;SDS011;7745;48.708;9.026;2022-10-16T04:54:56;6.43;;;1.80;;
15287;SDS011;7745;48.708;9.026;2022-10-16T04:57:26;6.10;;;1.70;;
15287;SDS011;7745;48.708;9.026;2022-10-16T04:59:53;12.60;;;2.93;;
15287;SDS011;7745;48.708;9.026;2022-10-16T05:02:21;7.73;;;1.80;;
15287;SDS011;7745;48.708;9.026;2022-10-16T05:04:48;5.17;;;1.80;;
15287;SDS011;7745;48.708;9.026;2022-10-16T05:07:14;7.20;;;1.80;;
15287;SDS011;7745;48.708;9.026;2022-10-16T05:09:41;7.33;;;1.77;;
15287;SDS011;7745;48.708;9.026;2022-10-16T05:12:08;9.43;;;2.17;;
15287;SDS011;7745;48.708;9.026;2022-10-16T05:14:35;9.53;;;1.97;;
15287;SDS011;7745;48.708;9.026;2022-10-16T05:17:01;4.50;;;1.83;;
15287;SDS011;7745;48.708;9.026;2022-10-16T05:19:30;5.33;;;1.90;;
15287;SDS011;7745;48.708;9.026;2022-10-16T05:21:56;2.37;;;1.73;;
15287;SDS011;7745;48.708;9.026;2022-10-16T05:24:23;7.73;;;1.73;;
15287;SDS011;7745;48.708;9.026;2022-10-16T05:26:50;6.70;;;1.50;;
15287;SDS011;7745;48.708;9.026;2022-10-16T05:29:17;6.87;;;1.60;;
15287;SDS011;7745;48.708;9.026;2022-10-16T05:31:44;8.93;;;1.80;;
15287;SDS011;7745;48.708;9.026;2022-10-16T05:34:11;11.60;;;1.60;;
15287;SDS011;7745;48.708;9.026;2022-10-16T05:36:39;6.33;;;1.87;;
15287;SDS011;7745;48.708;9.026;2022-10-16T05:39:06;5.37;;;2.03;;
15287;SDS011;7745;48.708;9.026;2022-10-16T05:41:33;9.60;;;1.83;;
15287;SDS011;7745;48.708;9.026;2022-10-16T05:43:59;5.73;;;2.10;;
15287;SDS011;7745;48.708;9.026;2022-10-16T05:46:29;5.63;;;1.97;;
15287;SDS011;7745;48.708;9.026;2022-10-16T05:48:56;7.77;;;2.00;;
15287;SDS011;7745;48.708;9.026;2022-10-16T05:51:23;7.17;;;2.43;;
15287;SDS011;7745;48.708;9.026;2022-10-16T05:53:51;12.50;;;1.90;;
15287;SDS011;7745;48.708;9.026;2022-10-16T05:56:18;6.10;;;2.43;;
15287;SDS011;7745;48.708;9.026;2022-10-16T05:58:45;4.03;;;2.00;;
15287;SDS011;7745;48.708;9.026;2022-10-16T06:01:13;7.00;;;2.10;;
15287;SDS011;7745;48.708;9.026;2022-10-16T06:03:41;5.83;;;2.03;;
15287;SDS011;7745;48.708;9.026;2022-10-16T06:06:09;4.63;;;1.70;;
15287;SDS011;7745;48.708;9.026;2022-10-16T06:08:36;6.27;;;1.80;;
15287;SDS011;7745;48.708;9.026;2022-10-16T06:11:05;4.30;;;1.67;;
15287;SDS011;7745;48.708;9.026;2022-10-16T06:13:34;7.60;;;2.10;;
15287;SDS011;7745;48.708;9.026;2022-10-16T06:16:01;7.17;;;2.23;;
15287;SDS011;7745;48.708;9.026;2022-10-16T06:18:29;5.53;;;1.50;;
15287;SDS011;7745;48.708;9.026;2022-10-16T06:20:57;3.80;;;1.80;;
15287;SDS011;7745;48.708;9.026;2022-10-16T06:23:24;5.23;;;1.80;;
15287;SDS011;7745;48.708;9.026;2022-10-16T06:25:51;3.87;;;1.67;;
15287;SDS011;7745;48.708;9.026;2022-10-16T06:28:19;6.20;;;1.80;;
15287;SDS011;7745;48.708;9.026;2022-10-16T06:30:46;3.77;;;1.80;;
15287;SDS011;7745;48.708;9.026;2022-10-16T06:33:13;3.30;;;1.70;;
15287;SDS011;7745;48.708;9.026;2022-10-16T06:35:40;4.93;;;1.80;;
15287;SDS011;7745;48.708;9.026;2022-10-16T06:38:07;6.77;;;1.77;;
15287;SDS011;7745;48.708;9.026;2022-10-16T06:40:33;7.10;;;1.90;;
15287;SDS011;7745;48.708;9.026;2022-10-16T06:43:00;3.17;;;1.67;;
15287;SDS011;7745;48.708;9.026;2022-10-16T06:45:28;4.77;;;1.57;;
15287;SDS011;7745;48.708;9.026;2022-10-16T06:47:55;5.40;;;1.57;;
15287;SDS011;7745;48.708;9.026;2022-10-16T06:50:22;3.90;;;1.60;;
15287;SDS011;7745;48.708;9.026;2022-10-16T06:52:48;1.63;;;1.53;;
15287;SDS011;7745;48.708;9.026;2022-10-16T06:55:15;5.00;;;1.40;;
15287;SDS011;7745;48.708;9.026;2022-10-16T06:57:46;7.47;;;1.70;;
15287;SDS011;7745;48.708;9.026;2022-10-16T07:00:13;2.03;;;1.80;;
15287;SDS011;7745;48.708;9.026;2022-10-16T07:02:42;4.07;;;1.97;;
15287;SDS011;7745;48.708;9.026;2022-10-16T07:05:08;3.57;;;1.60;;
15287;SDS011;7745;48.708;9.026;2022-10-16T07:07:35;6.67;;;2.07;;
15287;SDS011;7745;48.708;9.026;2022-10-16T07:10:02;2.83;;;1.47;;
15287;SDS011;7745;48.708;9.026;2022-10-16T07:12:29;5.70;;;1.50;;
15287;SDS011;7745;48.708;9.026;2022-10-16T07:14:56;3.20;;;1.50;;
15287;SDS011;7745;48.708;9.026;2022-10-16T07:17:23;3.90;;;1.50;;
15287;SDS011;7745;48.708;9.026;2022-10-16T07:19:51;4.33;;;1.50;;
15287;SDS011;7745;48.708;9.026;2022-10-16T07:22:18;2.50;;;1.43;;
15287;SDS011;7745;48.708;9.026;2022-10-16T07:24:45;2.57;;;1.40;;
15287;SDS011;7745;48.708;9.026;2022-10-16T07:27:12;2.57;;;1.60;;
15287;SDS011;7745;48.708;9.026;2022-10-16T07:29:40;3.33;;;1.47;;
15287;SDS011;7745;48.708;9.026;2022-10-16T07:32:07;2.93;;;1.90;;
15287;SDS011;7745;48.708;9.026;2022-10-16T07:34:34;4.80;;;1.60;;
15287;SDS011;7745;48.708;9.026;2022-10-16T07:37:02;4.53;;;1.47;;
15287;SDS011;7745;48.708;9.026;2022-10-16T07:39:28;5.13;;;1.83;;
15287;SDS011;7745;48.708;9.026;2022-10-16T07:41:55;2.20;;;1.20;;
15287;SDS011;7745;48.708;9.026;2022-10-16T07:44:22;3.93;;;1.70;;
15287;SDS011;7745;48.708;9.026;2022-10-16T07:46:49;7.47;;;1.73;;
15287;SDS011;7745;48.708;9.026;2022-10-16T07:49:16;1.67;;;1.57;;
15287;SDS011;7745;48.708;9.026;2022-10-16T07:51:42;3.17;;;1.50;;
15287;SDS011;7745;48.708;9.026;2022-10-16T07:54:10;2.27;;;1.20;;
15287;SDS011;7745;48.708;9.026;2022-10-16T07:56:37;5.63;;;1.77;;
15287;SDS011;7745;48.708;9.026;2022-10-16T07:59:04;2.07;;;1.70;;
15287;SDS011;7745;48.708;9.026;2022-10-16T08:01:31;2.17;;;1.90;;
15287;SDS011;7745;48.708;9.026;2022-10-16T08:03:57;5.00;;;2.60;;
15287;SDS011;7745;48.708;9.026;2022-10-16T08:06:24;3.20;;;1.80;;
15287;SDS011;7745;48.708;9.026;2022-10-16T08:08:51;2.83;;;2.20;;
15287;SDS011;7745;48.708;9.026;2022-10-16T08:11:19;6.83;;;2.00;;
15287;SDS011;7745;48.708;9.026;2022-10-16T08:13:46;5.17;;;2.00;;
15287;SDS011;7745;48.708;9.026;2022-10-16T08:16:13;5.17;;;1.80;;
15287;SDS011;7745;48.708;9.026;2022-10-16T08:18:41;4.23;;;1.90;;
15287;SDS011;7745;48.708;9.026;2022-10-16T08:21:11;3.37;;;1.40;;
15287;SDS011;7745;48.708;9.026;2022-10-16T08:23:40;3.67;;;1.60;;
15287;SDS011;7745;48.708;9.026;2022-10-16T08:26:07;2.30;;;1.20;;
15287;SDS011;7745;48.708;9.026;2022-10-16T08:28:36;8.23;;;1.47;;
15287;SDS011;7745;48.708;9.026;2022-10-16T08:31:07;3.93;;;1.50;;
15287;SDS011;7745;48.708;9.026;2022-10-16T08:33:35;1.37;;;1.20;;
15287;SDS011;7745;48.708;9.026;2022-10-16T08:36:03;2.63;;;1.20;;
15287;SDS011;7745;48.708;9.026;2022-10-16T08:38:31;3.37;;;1.50;;
15287;SDS011;7745;48.708;9.026;2022-10-16T08:41:01;3.40;;;1.47;;
15287;SDS011;7745;48.708;9.026;2022-10-16T08:43:43;3.77;;;1.40;;
15287;SDS011;7745;48.708;9.026;2022-10-16T08:46:31;3.13;;;1.10;;
15287;SDS011;7745;48.708;9.026;2022-10-16T08:49:05;2.70;;;1.40;;
15287;SDS011;7745;48.708;9.026;2022-10-16T08:51:37;1.47;;;1.37;;
15287;SDS011;7745;48.708;9.026;2022-10-16T08:54:05;4.60;;;1.93;;
15287;SDS011;7745;48.708;9.026;2022-10-16T08:56:34;4.20;;;1.50;;
15287;SDS011;7745;48.708;9.026;2022-10-16T08:59:06;2.43;;;1.43;;
15287;SDS011;7745;48.708;9.026;2022-10-16T09:04:25;2.93;;;1.20;;
15287;SDS011;7745;48.708;9.026;2022-10-16T09:07:13;1.80;;;1.37;;
15287;SDS011;7745;48.708;9.026;2022-10-16T09:09:49;2.87;;;1.40;;
15287;SDS011;7745;48.708;9.026;2022-10-16T09:12:32;1.63;;;1.20;;
15287;SDS011;7745;48.708;9.026;2022-10-16T09:15:11;3.17;;;1.30;;
15287;SDS011;7745;48.708;9.026;2022-10-16T09:17:46;5.70;;;1.20;;
15287;SDS011;7745;48.708;9.026;2022-10-16T09:20:24;3.47;;;1.20;;
15287;SDS011;7745;48.708;9.026;2022-10-16T09:23:00;3.23;;;1.20;;
15287;SDS011;7745;48.708;9.026;2022-10-16T09:25:36;1.47;;;1.20;;
15287;SDS011;7745;48.708;9.026;2022-10-16T09:28:07;3.10;;;1.17;;
15287;SDS011;7745;48.708;9.026;2022-10-16T09:33:52;2.83;;;1.30;;
15287;SDS011;7745;48.708;9.026;2022-10-16T09:36:21;1.37;;;1.00;;
15287;SDS011;7745;48.708;9.026;2022-10-16T09:38:50;3.10;;;1.17;;
15287;SDS011;7745;48.708;9.026;2022-10-16T09:41:29;6.87;;;1.47;;
15287;SDS011;7745;48.708;9.026;2022-10-16T09:43:56;3.63;;;1.30;;
15287;SDS011;7745;48.708;9.026;2022-10-16T09:46:26;3.43;;;1.30;;
15287;SDS011;7745;48.708;9.026;2022-10-16T09:48:56;3.23;;;1.30;;
15287;SDS011;7745;48.708;9.026;2022-10-16T09:51:24;2.93;;;1.07;;
15287;SDS011;7745;48.708;9.026;2022-10-16T09:54:15;2.20;;;1.00;;
15287;SDS011;7745;48.708;9.026;2022-10-16T09:59:58;2.20;;;1.10;;
15287;SDS011;7745;48.708;9.026;2022-10-16T10:02:27;4.00;;;1.10;;
15287;SDS011;7745;48.708;9.026;2022-10-16T10:04:57;2.88;;;1.35;;
15287;SDS011;7745;48.708;9.026;2022-10-16T10:07:25;5.60;;;1.10;;
15287;SDS011;7745;48.708;9.026;2022-10-16T10:09:53;1.92;;;1.10;;
15287;SDS011;7745;48.708;9.026;2022-10-16T10:12:23;1.42;;;1.10;;
15287;SDS011;7745;48.708;9.026;2022-10-16T10:14:51;4.25;;;1.30;;
15287;SDS011;7745;48.708;9.026;2022-10-16T10:17:21;3.78;;;1.25;;
15287;SDS011;7745;48.708;9.026;2022-10-16T10:19:50;3.75;;;1.20;;
15287;SDS011;7745;48.708;9.026;2022-10-16T10:22:21;4.15;;;1.30;;
15287;SDS011;7745;48.708;9.026;2022-10-16T10:25:17;2.13;;;1.35;;
15287;SDS011;7745;48.708;9.026;2022-10-16T10:27:51;3.17;;;1.15;;
15287;SDS011;7745;48.708;9.026;2022-10-16T10:30:33;3.67;;;1.30;;
15287;SDS011;7745;48.708;9.026;2022-10-16T10:33:13;1.80;;;1.10;;
15287;SDS011;7745;48.708;9.026;2022-10-16T10:35:49;2.83;;;1.08;;
15287;SDS011;7745;48.708;9.026;2022-10-16T10:38:27;4.88;;;1.02;;
15287;SDS011;7745;48.708;9.026;2022-10-16T10:41:01;2.80;;;1.30;;
15287;SDS011;7745;48.708;9.026;2022-10-16T10:43:44;1.02;;;0.90;;
15287;SDS011;7745;48.708;9.026;2022-10-16T10:46:23;2.80;;;1.08;;
15287;SDS011;7745;48.708;9.026;2022-10-16T10:49:06;1.63;;;1.08;;
15287;SDS011;7745;48.708;9.026;2022-10-16T10:51:49;3.40;;;1.20;;
15287;SDS011;7745;48.708;9.026;2022-10-16T10:54:27;5.55;;;1.10;;
15287;SDS011;7745;48.708;9.026;2022-10-16T10:57:00;1.77;;;1.20;;
15287;SDS011;7745;48.708;9.026;2022-10-16T10:59:43;1.45;;;1.10;;
15287;SDS011;7745;48.708;9.026;2022-10-16T11:02:20;2.78;;;1.00;;
15287;SDS011;7745;48.708;9.026;2022-10-16T11:05:02;2.42;;;1.30;;
15287;SDS011;7745;48.708;9.026;2022-10-16T11:07:54;3.08;;;1.10;;
15287;SDS011;7745;48.708;9.026;2022-10-16T11:10:27;1.23;;;0.75;;
15287;SDS011;7745;48.708;9.026;2022-10-16T11:12:58;2.72;;;1.25;;
15287;SDS011;7745;48.708;9.026;2022-10-16T11:15:40;3.20;;;1.00;;
15287;SDS011;7745;48.708;9.026;2022-10-16T11:18:11;2.75;;;1.70;;
15287;SDS011;7745;48.708;9.026;2022-10-16T11:20:45;5.68;;;1.40;;
15287;SDS011;7745;48.708;9.026;2022-10-16T11:23:18;3.53;;;1.10;;
15287;SDS011;7745;48.708;9.026;2022-10-16T11:25:51;1.27;;;1.00;;
15287;SDS011;7745;48.708;9.026;2022-10-16T11:28:20;3.35;;;1.10;;
15287;SDS011;7745;48.708;9.026;2022-10-16T11:30:53;3.63;;;1.15;;
15287;SDS011;7745;48.708;9.026;2022-10-16T11:33:27;3.55;;;1.38;;
15287;SDS011;7745;48.708;9.026;2022-10-16T11:36:00;1.13;;;1.02;;
15287;SDS011;7745;48.708;9.026;2022-10-16T11:38:37;4.57;;;1.15;;
15287;SDS011;7745;48.708;9.026;2022-10-16T11:41:12;1.42;;;1.10;;
15287;SDS011;7745;48.708;9.026;2022-10-16T11:43:48;1.63;;;1.10;;
15287;SDS011;7745;48.708;9.026;2022-10-16T11:46:22;3.35;;;1.15;;
15287;SDS011;7745;48.708;9.026;2022-10-16T11:48:52;5.88;;;1.10;;
15287;SDS011;7745;48.708;9.026;2022-10-16T11:51:24;5.13;;;1.20;;
15287;SDS011;7745;48.708;9.026;2022-10-16T11:53:59;1.98;;;1.10;;
15287;SDS011;7745;48.708;9.026;2022-10-16T11:56:32;1.38;;;1.10;;
15287;SDS011;7745;48.708;9.026;2022-10-16T11:59:06;2.45;;;1.27;;
15287;SDS011;7745;48.708;9.026;2022-10-16T12:01:42;3.97;;;1.20;;
15287;SDS011;7745;48.708;9.026;2022-10-16T12:04:14;2.97;;;1.10;;
15287;SDS011;7745;48.708;9.026;2022-10-16T12:06:49;1.35;;;1.10;;
15287;SDS011;7745;48.708;9.026;2022-10-16T12:09:22;2.45;;;1.00;;
15287;SDS011;7745;48.708;9.026;2022-10-16T12:11:55;3.22;;;1.10;;
15287;SDS011;7745;48.708;9.026;2022-10-16T12:14:35;1.05;;;1.00;;
15287;SDS011;7745;48.708;9.026;2022-10-16T12:17:23;0.90;;;0.80;;
15287;SDS011;7745;48.708;9.026;2022-10-16T12:19:57;2.90;;;1.30;;
15287;SDS011;7745;48.708;9.026;2022-10-16T12:22:28;4.38;;;1.00;;
15287;SDS011;7745;48.708;9.026;2022-10-16T12:24:57;2.63;;;1.05;;
15287;SDS011;7745;48.708;9.026;2022-10-16T12:27:29;3.28;;;1.60;;
15287;SDS011;7745;48.708;9.026;2022-10-16T12:30:03;4.97;;;1.17;;
15287;SDS011;7745;48.708;9.026;2022-10-16T12:32:35;2.88;;;0.90;;
15287;SDS011;7745;48.708;9.026;2022-10-16T12:35:16;2.97;;;1.10;;
15287;SDS011;7745;48.708;9.026;2022-10-16T12:37:45;5.18;;;1.20;;
15287;SDS011;7745;48.708;9.026;2022-10-16T12:40:12;2.90;;;1.10;;
15287;SDS011;7745;48.708;9.026;2022-10-16T12:42:42;3.85;;;1.00;;
15287;SDS011;7745;48.708;9.026;2022-10-16T12:45:25;2.60;;;1.15;;
15287;SDS011;7745;48.708;9.026;2022-10-16T12:47:55;2.03;;;1.20;;
15287;SDS011;7745;48.708;9.026;2022-10-16T12:50:29;1.95;;;1.17;;
15287;SDS011;7745;48.708;9.026;2022-10-16T12:53:01;5.60;;;1.30;;
15287;SDS011;7745;48.708;9.026;2022-10-16T12:55:35;2.83;;;1.08;;
15287;SDS011;7745;48.708;9.026;2022-10-16T12:58:21;2.33;;;1.20;;
15287;SDS011;7745;48.708;9.026;2022-10-16T13:01:02;1.40;;;1.30;;
15287;SDS011;7745;48.708;9.026;2022-10-16T13:06:33;2.78;;;1.27;;
15287;SDS011;7745;48.708;9.026;2022-10-16T13:09:16;2.22;;;1.20;;
15287;SDS011;7745;48.708;9.026;2022-10-16T13:11:56;3.28;;;1.40;;
15287;SDS011;7745;48.708;9.026;2022-10-16T13:14:50;1.73;;;1.23;;
15287;SDS011;7745;48.708;9.026;2022-10-16T13:17:46;2.20;;;1.20;;
15287;SDS011;7745;48.708;9.026;2022-10-16T13:20:21;4.43;;;1.65;;
15287;SDS011;7745;48.708;9.026;2022-10-16T13:22:59;2.40;;;1.60;;
15287;SDS011;7745;48.708;9.026;2022-10-16T13:25:37;1.80;;;1.48;;
15287;SDS011;7745;48.708;9.026;2022-10-16T13:28:11;1.35;;;1.25;;
15287;SDS011;7745;48.708;9.026;2022-10-16T13:30:42;3.58;;;1.50;;
15287;SDS011;7745;48.708;9.026;2022-10-16T13:33:13;3.13;;;1.42;;
15287;SDS011;7745;48.708;9.026;2022-10-16T13:35:47;2.63;;;1.40;;
15287;SDS011;7745;48.708;9.026;2022-10-16T13:38:19;1.40;;;1.20;;
15287;SDS011;7745;48.708;9.026;2022-10-16T13:40:48;3.75;;;1.30;;
15287;SDS011;7745;48.708;9.026;2022-10-16T13:43:17;4.22;;;1.30;;
15287;SDS011;7745;48.708;9.026;2022-10-16T13:45:55;3.25;;;1.33;;
15287;SDS011;7745;48.708;9.026;2022-10-16T13:48:23;2.42;;;1.33;;
15287;SDS011;7745;48.708;9.026;2022-10-16T13:50:59;2.70;;;1.48;;
15287;SDS011;7745;48.708;9.026;2022-10-16T13:53:33;2.85;;;1.20;;
15287;SDS011;7745;48.708;9.026;2022-10-16T13:56:02;3.55;;;1.27;;
15287;SDS011;7745;48.708;9.026;2022-10-16T13:58:40;2.10;;;1.50;;
15287;SDS011;7745;48.708;9.026;2022-10-16T14:01:16;3.17;;;1.65;;
15287;SDS011;7745;48.708;9.026;2022-10-16T14:04:04;1.88;;;1.20;;
15287;SDS011;7745;48.708;9.026;2022-10-16T14:06:43;4.78;;;1.58;;
15287;SDS011;7745;48.708;9.026;2022-10-16T14:09:24;1.27;;;1.17;;
15287;SDS011;7745;48.708;9.026;2022-10-16T14:12:07;4.57;;;1.50;;
15287;SDS011;7745;48.708;9.026;2022-10-16T14:14:44;3.88;;;1.60;;
15287;SDS011;7745;48.708;9.026;2022-10-16T14:17:28;1.92;;;1.30;;
15287;SDS011;7745;48.708;9.026;2022-10-16T14:20:12;2.35;;;1.40;;
15287;SDS011;7745;48.708;9.026;2022-10-16T14:23:03;4.38;;;1.50;;
15287;SDS011;7745;48.708;9.026;2022-10-16T14:25:48;2.38;;;1.20;;
15287;SDS011;7745;48.708;9.026;2022-10-16T14:28:22;2.00;;;1.40;;
15287;SDS011;7745;48.708;9.026;2022-10-16T14:30:51;4.32;;;1.48;;
15287;SDS011;7745;48.708;9.026;2022-10-16T14:33:22;5.65;;;1.30;;
15287;SDS011;7745;48.708;9.026;2022-10-16T14:36:01;3.20;;;1.50;;
15287;SDS011;7745;48.708;9.026;2022-10-16T14:38:30;2.38;;;1.48;;
15287;SDS011;7745;48.708;9.026;2022-10-16T14:40:59;1.90;;;1.42;;
15287;SDS011;7745;48.708;9.026;2022-10-16T14:43:29;3.55;;;1.35;;
15287;SDS011;7745;48.708;9.026;2022-10-16T14:46:00;1.95;;;1.25;;
15287;SDS011;7745;48.708;9.026;2022-10-16T14:48:31;2.78;;;1.20;;
15287;SDS011;7745;48.708;9.026;2022-10-16T14:50:58;3.60;;;1.55;;
15287;SDS011;7745;48.708;9.026;2022-10-16T14:53:25;7.05;;;1.55;;
15287;SDS011;7745;48.708;9.026;2022-10-16T14:55:53;3.08;;;1.50;;
15287;SDS011;7745;48.708;9.026;2022-10-16T14:58:20;2.63;;;1.50;;
15287;SDS011;7745;48.708;9.026;2022-10-16T15:00:50;1.98;;;1.20;;
15287;SDS011;7745;48.708;9.026;2022-10-16T15:03:17;2.05;;;1.35;;
15287;SDS011;7745;48.708;9.026;2022-10-16T15:05:45;2.90;;;1.58;;
15287;SDS011;7745;48.708;9.026;2022-10-16T15:08:12;5.25;;;1.60;;
15287;SDS011;7745;48.708;9.026;2022-10-16T15:10:42;3.70;;;1.40;;
15287;SDS011;7745;48.708;9.026;2022-10-16T15:13:11;6.40;;;1.58;;
15287;SDS011;7745;48.708;9.026;2022-10-16T15:15:42;3.38;;;1.60;;
15287;SDS011;7745;48.708;9.026;2022-10-16T15:18:14;7.20;;;1.67;;
15287;SDS011;7745;48.708;9.026;2022-10-16T15:20:47;4.78;;;1.55;;
15287;SDS011;7745;48.708;9.026;2022-10-16T15:23:15;3.47;;;1.60;;
15287;SDS011;7745;48.708;9.026;2022-10-16T15:25:44;5.93;;;1.50;;
15287;SDS011;7745;48.708;9.026;2022-10-16T15:28:13;6.85;;;1.42;;
15287;SDS011;7745;48.708;9.026;2022-10-16T15:30:41;9.35;;;1.80;;
15287;SDS011;7745;48.708;9.026;2022-10-16T15:33:11;5.28;;;1.77;;
15287;SDS011;7745;48.708;9.026;2022-10-16T15:35:40;6.10;;;1.45;;
15287;SDS011;7745;48.708;9.026;2022-10-16T15:38:10;7.72;;;1.73;;